sensor_id;sensor_type;location;lat;lon;timestamp;temperature;humidity
24638;DHT22;12773;50.162;8.548;2023-04-06T00:01:18;2.60;99.90
24638;DHT22;12773;50.162;8.548;2023-04-06T00:04:06;2.70;99.90
24638;DHT22;12773;50.162;8.548;2023-04-06T00:06:53;2.80;99.90
24638;DHT22;12773;50.162;8.548;2023-04-06T00:09:41;2.80;99.90
24638;DHT22;12773;50.162;8.548;2023-04-06T00:12:28;2.80;99.90
24638;DHT22;12773;50.162;8.548;2023-04-06T00:15:15;2.70;99.90
24638;DHT22;12773;50.162;8.548;2023-04-06T00:18:03;2.60;99.90
24638;DHT22;12773;50.162;8.548;2023-04-06T00:20:51;2.60;99.90
24638;DHT22;12773;50.162;8.548;2023-04-06T00:23:38;2.80;99.90
24638;DHT22;12773;50.162;8.548;2023-04-06T00:26:26;2.80;99.90
24638;DHT22;12773;50.162;8.548;2023-04-06T00:29:13;2.70;99.90
24638;DHT22;12773;50.162;8.548;2023-04-06T00:32:01;2.60;99.90
24638;DHT22;12773;50.162;8.548;2023-04-06T00:34:48;2.50;99.90
24638;DHT22;12773;50.162;8.548;2023-04-06T00:37:36;2.40;99.90
24638;DHT22;12773;50.162;8.548;2023-04-06T00:40:23;2.40;99.90
24638;DHT22;12773;50.162;8.548;2023-04-06T00:43:12;2.60;99.90
24638;DHT22;12773;50.162;8.548;2023-04-06T00:45:59;2.70;99.90
24638;DHT22;12773;50.162;8.548;2023-04-06T00:48:47;2.70;99.90
24638;DHT22;12773;50.162;8.548;2023-04-06T00:51:35;2.90;99.90
24638;DHT22;12773;50.162;8.548;2023-04-06T00:54:22;2.90;99.90
24638;DHT22;12773;50.162;8.548;2023-04-06T00:57:11;2.90;99.90
24638;DHT22;12773;50.162;8.548;2023-04-06T00:59:58;2.90;99.90
24638;DHT22;12773;50.162;8.548;2023-04-06T01:02:46;2.80;99.90
24638;DHT22;12773;50.162;8.548;2023-04-06T01:05:35;2.80;99.90
24638;DHT22;12773;50.162;8.548;2023-04-06T01:08:25;2.70;99.90
24638;DHT22;12773;50.162;8.548;2023-04-06T01:11:13;2.70;99.90
24638;DHT22;12773;50.162;8.548;2023-04-06T01:14:00;2.50;99.90
24638;DHT22;12773;50.162;8.548;2023-04-06T01:16:47;2.40;99.90
24638;DHT22;12773;50.162;8.548;2023-04-06T01:19:35;2.30;99.90
24638;DHT22;12773;50.162;8.548;2023-04-06T01:22:24;2.30;99.90
24638;DHT22;12773;50.162;8.548;2023-04-06T01:25:11;2.20;99.90
24638;DHT22;12773;50.162;8.548;2023-04-06T01:27:59;2.10;99.90
24638;DHT22;12773;50.162;8.548;2023-04-06T01:30:46;2.10;99.90
24638;DHT22;12773;50.162;8.548;2023-04-06T01:33:34;2.00;99.90
24638;DHT22;12773;50.162;8.548;2023-04-06T01:36:21;1.90;99.90
24638;DHT22;12773;50.162;8.548;2023-04-06T01:39:09;1.90;99.90
24638;DHT22;12773;50.162;8.548;2023-04-06T01:41:56;1.80;99.90
24638;DHT22;12773;50.162;8.548;2023-04-06T01:44:44;1.80;99.90
24638;DHT22;12773;50.162;8.548;2023-04-06T01:47:31;1.70;99.90
24638;DHT22;12773;50.162;8.548;2023-04-06T01:50:19;1.80;99.90
24638;DHT22;12773;50.162;8.548;2023-04-06T01:53:06;1.80;99.90
24638;DHT22;12773;50.162;8.548;2023-04-06T01:55:54;1.90;99.90
24638;DHT22;12773;50.162;8.548;2023-04-06T01:58:41;1.90;99.90
24638;DHT22;12773;50.162;8.548;2023-04-06T02:01:31;1.70;99.90
24638;DHT22;12773;50.162;8.548;2023-04-06T02:04:18;1.70;99.90
24638;DHT22;12773;50.162;8.548;2023-04-06T02:07:06;1.60;99.90
24638;DHT22;12773;50.162;8.548;2023-04-06T02:09:55;1.60;99.90
24638;DHT22;12773;50.162;8.548;2023-04-06T02:12:42;1.80;99.90
24638;DHT22;12773;50.162;8.548;2023-04-06T02:15:30;1.80;99.90
24638;DHT22;12773;50.162;8.548;2023-04-06T02:18:18;1.80;99.90
24638;DHT22;12773;50.162;8.548;2023-04-06T02:21:06;1.80;99.90
24638;DHT22;12773;50.162;8.548;2023-04-06T02:23:53;1.70;99.90
24638;DHT22;12773;50.162;8.548;2023-04-06T02:26:41;1.70;99.90
24638;DHT22;12773;50.162;8.548;2023-04-06T02:29:28;1.70;99.90
24638;DHT22;12773;50.162;8.548;2023-04-06T02:32:16;1.60;99.90
24638;DHT22;12773;50.162;8.548;2023-04-06T02:35:03;1.60;99.90
24638;DHT22;12773;50.162;8.548;2023-04-06T02:37:51;1.60;99.90
24638;DHT22;12773;50.162;8.548;2023-04-06T02:40:38;1.60;99.90
24638;DHT22;12773;50.162;8.548;2023-04-06T02:43:28;1.60;99.90
24638;DHT22;12773;50.162;8.548;2023-04-06T02:46:16;1.50;99.90
24638;DHT22;12773;50.162;8.548;2023-04-06T02:49:04;1.40;99.90
24638;DHT22;12773;50.162;8.548;2023-04-06T02:51:52;1.40;99.90
24638;DHT22;12773;50.162;8.548;2023-04-06T02:54:39;1.30;99.90
24638;DHT22;12773;50.162;8.548;2023-04-06T02:57:27;1.30;99.90
24638;DHT22;12773;50.162;8.548;2023-04-06T03:00:14;1.30;99.90
24638;DHT22;12773;50.162;8.548;2023-04-06T03:03:02;1.20;99.90
24638;DHT22;12773;50.162;8.548;2023-04-06T03:05:50;1.20;99.90
24638;DHT22;12773;50.162;8.548;2023-04-06T03:08:37;1.10;99.90
24638;DHT22;12773;50.162;8.548;2023-04-06T03:11:24;1.10;99.90
24638;DHT22;12773;50.162;8.548;2023-04-06T03:14:12;1.10;99.90
24638;DHT22;12773;50.162;8.548;2023-04-06T03:17:00;1.10;99.90
24638;DHT22;12773;50.162;8.548;2023-04-06T03:19:48;1.00;99.90
24638;DHT22;12773;50.162;8.548;2023-04-06T03:22:37;1.00;99.90
24638;DHT22;12773;50.162;8.548;2023-04-06T03:25:25;1.00;99.90
24638;DHT22;12773;50.162;8.548;2023-04-06T03:28:12;1.00;99.90
24638;DHT22;12773;50.162;8.548;2023-04-06T03:31:00;1.00;99.90
24638;DHT22;12773;50.162;8.548;2023-04-06T03:33:47;1.00;99.90
24638;DHT22;12773;50.162;8.548;2023-04-06T03:36:35;1.00;99.90
24638;DHT22;12773;50.162;8.548;2023-04-06T03:39:23;0.90;99.90
24638;DHT22;12773;50.162;8.548;2023-04-06T03:42:10;1.00;99.90
24638;DHT22;12773;50.162;8.548;2023-04-06T03:44:58;0.90;99.90
24638;DHT22;12773;50.162;8.548;2023-04-06T03:47:46;0.80;99.90
24638;DHT22;12773;50.162;8.548;2023-04-06T03:50:33;0.80;99.90
24638;DHT22;12773;50.162;8.548;2023-04-06T03:53:20;0.90;99.90
24638;DHT22;12773;50.162;8.548;2023-04-06T03:56:07;0.90;99.90
24638;DHT22;12773;50.162;8.548;2023-04-06T03:58:55;1.00;99.90
24638;DHT22;12773;50.162;8.548;2023-04-06T04:01:42;1.00;99.90
24638;DHT22;12773;50.162;8.548;2023-04-06T04:04:30;1.10;99.90
24638;DHT22;12773;50.162;8.548;2023-04-06T04:07:17;1.10;99.90
24638;DHT22;12773;50.162;8.548;2023-04-06T04:10:05;1.10;99.90
24638;DHT22;12773;50.162;8.548;2023-04-06T04:12:53;1.20;99.90
24638;DHT22;12773;50.162;8.548;2023-04-06T04:15:40;1.20;99.90
24638;DHT22;12773;50.162;8.548;2023-04-06T04:18:27;1.30;99.90
24638;DHT22;12773;50.162;8.548;2023-04-06T04:21:14;1.10;99.90
24638;DHT22;12773;50.162;8.548;2023-04-06T04:24:02;1.10;99.90
24638;DHT22;12773;50.162;8.548;2023-04-06T04:26:49;1.10;99.90
24638;DHT22;12773;50.162;8.548;2023-04-06T04:29:37;1.10;99.90
24638;DHT22;12773;50.162;8.548;2023-04-06T04:32:24;1.10;99.90
24638;DHT22;12773;50.162;8.548;2023-04-06T04:35:13;1.00;99.90
24638;DHT22;12773;50.162;8.548;2023-04-06T04:38:01;1.00;99.90
24638;DHT22;12773;50.162;8.548;2023-04-06T04:40:48;1.10;99.90
24638;DHT22;12773;50.162;8.548;2023-04-06T04:43:36;1.20;99.90
24638;DHT22;12773;50.162;8.548;2023-04-06T04:46:23;1.20;99.90
24638;DHT22;12773;50.162;8.548;2023-04-06T04:49:11;1.20;99.90
24638;DHT22;12773;50.162;8.548;2023-04-06T04:51:58;1.10;99.90
24638;DHT22;12773;50.162;8.548;2023-04-06T04:54:45;1.00;99.90
24638;DHT22;12773;50.162;8.548;2023-04-06T04:57:34;1.00;99.90
24638;DHT22;12773;50.162;8.548;2023-04-06T05:00:21;1.00;99.90
24638;DHT22;12773;50.162;8.548;2023-04-06T05:03:10;1.00;99.90
24638;DHT22;12773;50.162;8.548;2023-04-06T05:05:59;1.00;99.90
24638;DHT22;12773;50.162;8.548;2023-04-06T05:08:46;1.00;99.90
24638;DHT22;12773;50.162;8.548;2023-04-06T05:11:34;0.90;99.90
24638;DHT22;12773;50.162;8.548;2023-04-06T05:14:21;0.90;99.90
24638;DHT22;12773;50.162;8.548;2023-04-06T05:17:09;0.80;99.90
24638;DHT22;12773;50.162;8.548;2023-04-06T05:19:56;0.80;99.90
24638;DHT22;12773;50.162;8.548;2023-04-06T05:22:44;0.80;99.90
24638;DHT22;12773;50.162;8.548;2023-04-06T05:25:32;0.80;99.90
24638;DHT22;12773;50.162;8.548;2023-04-06T05:28:20;0.80;99.90
24638;DHT22;12773;50.162;8.548;2023-04-06T05:31:07;0.90;99.90
24638;DHT22;12773;50.162;8.548;2023-04-06T05:33:56;0.90;99.90
24638;DHT22;12773;50.162;8.548;2023-04-06T05:36:43;1.00;99.90
24638;DHT22;12773;50.162;8.548;2023-04-06T05:39:31;0.90;99.90
24638;DHT22;12773;50.162;8.548;2023-04-06T05:42:18;1.10;99.90
24638;DHT22;12773;50.162;8.548;2023-04-06T05:45:06;1.20;99.90
24638;DHT22;12773;50.162;8.548;2023-04-06T05:47:54;1.30;99.90
24638;DHT22;12773;50.162;8.548;2023-04-06T05:50:41;1.30;99.90
24638;DHT22;12773;50.162;8.548;2023-04-06T05:53:29;1.50;99.90
24638;DHT22;12773;50.162;8.548;2023-04-06T05:56:16;1.50;99.90
24638;DHT22;12773;50.162;8.548;2023-04-06T05:59:04;1.60;99.90
24638;DHT22;12773;50.162;8.548;2023-04-06T06:01:51;1.70;99.90
24638;DHT22;12773;50.162;8.548;2023-04-06T06:04:38;1.70;99.90
24638;DHT22;12773;50.162;8.548;2023-04-06T06:07:26;1.80;99.90
24638;DHT22;12773;50.162;8.548;2023-04-06T06:10:13;2.10;99.90
24638;DHT22;12773;50.162;8.548;2023-04-06T06:13:02;2.20;99.90
24638;DHT22;12773;50.162;8.548;2023-04-06T06:15:50;2.30;99.90
24638;DHT22;12773;50.162;8.548;2023-04-06T06:18:38;2.50;99.90
24638;DHT22;12773;50.162;8.548;2023-04-06T06:21:26;2.60;99.90
24638;DHT22;12773;50.162;8.548;2023-04-06T06:24:13;2.80;99.90
24638;DHT22;12773;50.162;8.548;2023-04-06T06:27:01;3.00;99.90
24638;DHT22;12773;50.162;8.548;2023-04-06T06:29:48;3.20;99.90
24638;DHT22;12773;50.162;8.548;2023-04-06T06:32:35;3.30;99.90
24638;DHT22;12773;50.162;8.548;2023-04-06T06:35:23;3.50;99.90
24638;DHT22;12773;50.162;8.548;2023-04-06T06:38:10;3.70;99.90
24638;DHT22;12773;50.162;8.548;2023-04-06T06:40:57;3.90;99.90
24638;DHT22;12773;50.162;8.548;2023-04-06T06:43:45;4.00;99.90
24638;DHT22;12773;50.162;8.548;2023-04-06T06:46:32;4.20;99.90
24638;DHT22;12773;50.162;8.548;2023-04-06T06:49:20;4.40;99.90
24638;DHT22;12773;50.162;8.548;2023-04-06T06:52:08;4.50;99.90
24638;DHT22;12773;50.162;8.548;2023-04-06T06:54:55;4.70;99.90
24638;DHT22;12773;50.162;8.548;2023-04-06T06:57:43;4.80;99.90
24638;DHT22;12773;50.162;8.548;2023-04-06T07:00:32;4.90;99.90
24638;DHT22;12773;50.162;8.548;2023-04-06T07:03:21;5.00;99.90
24638;DHT22;12773;50.162;8.548;2023-04-06T07:06:08;5.20;99.90
24638;DHT22;12773;50.162;8.548;2023-04-06T07:08:58;5.30;99.90
24638;DHT22;12773;50.162;8.548;2023-04-06T07:11:54;5.40;99.90
24638;DHT22;12773;50.162;8.548;2023-04-06T07:14:43;5.50;99.90
24638;DHT22;12773;50.162;8.548;2023-04-06T07:17:30;5.50;99.90
24638;DHT22;12773;50.162;8.548;2023-04-06T07:20:18;5.60;99.90
24638;DHT22;12773;50.162;8.548;2023-04-06T07:23:06;5.60;99.90
24638;DHT22;12773;50.162;8.548;2023-04-06T07:25:53;5.80;99.90
24638;DHT22;12773;50.162;8.548;2023-04-06T07:28:41;6.00;99.90
24638;DHT22;12773;50.162;8.548;2023-04-06T07:31:29;6.10;99.90
24638;DHT22;12773;50.162;8.548;2023-04-06T07:34:16;6.40;99.90
24638;DHT22;12773;50.162;8.548;2023-04-06T07:37:04;6.60;99.90
24638;DHT22;12773;50.162;8.548;2023-04-06T07:39:51;6.70;99.90
24638;DHT22;12773;50.162;8.548;2023-04-06T07:42:38;6.80;99.90
24638;DHT22;12773;50.162;8.548;2023-04-06T07:45:26;6.90;99.90
24638;DHT22;12773;50.162;8.548;2023-04-06T07:48:13;6.90;99.90
24638;DHT22;12773;50.162;8.548;2023-04-06T07:51:02;6.70;99.90
24638;DHT22;12773;50.162;8.548;2023-04-06T07:53:50;6.80;99.90
24638;DHT22;12773;50.162;8.548;2023-04-06T07:56:38;6.70;99.90
24638;DHT22;12773;50.162;8.548;2023-04-06T07:59:25;6.70;99.90
24638;DHT22;12773;50.162;8.548;2023-04-06T08:02:12;6.80;99.90
24638;DHT22;12773;50.162;8.548;2023-04-06T08:05:00;6.80;99.90
24638;DHT22;12773;50.162;8.548;2023-04-06T08:07:47;6.90;99.90
24638;DHT22;12773;50.162;8.548;2023-04-06T08:10:34;7.00;99.90
24638;DHT22;12773;50.162;8.548;2023-04-06T08:13:22;7.10;99.90
24638;DHT22;12773;50.162;8.548;2023-04-06T08:16:10;7.20;99.90
24638;DHT22;12773;50.162;8.548;2023-04-06T08:18:57;7.20;99.90
24638;DHT22;12773;50.162;8.548;2023-04-06T08:21:45;7.20;99.90
24638;DHT22;12773;50.162;8.548;2023-04-06T08:24:33;7.40;99.90
24638;DHT22;12773;50.162;8.548;2023-04-06T08:27:23;7.60;99.90
24638;DHT22;12773;50.162;8.548;2023-04-06T08:30:10;7.70;99.90
24638;DHT22;12773;50.162;8.548;2023-04-06T08:32:58;7.80;99.90
24638;DHT22;12773;50.162;8.548;2023-04-06T08:35:45;7.80;99.90
24638;DHT22;12773;50.162;8.548;2023-04-06T08:38:33;7.70;99.90
24638;DHT22;12773;50.162;8.548;2023-04-06T08:41:21;7.80;99.90
24638;DHT22;12773;50.162;8.548;2023-04-06T08:44:08;8.10;99.90
24638;DHT22;12773;50.162;8.548;2023-04-06T08:46:55;8.10;99.90
24638;DHT22;12773;50.162;8.548;2023-04-06T08:49:44;8.10;99.90
24638;DHT22;12773;50.162;8.548;2023-04-06T08:52:33;8.10;99.90
24638;DHT22;12773;50.162;8.548;2023-04-06T08:55:24;8.20;99.90
24638;DHT22;12773;50.162;8.548;2023-04-06T08:58:12;8.40;99.90
24638;DHT22;12773;50.162;8.548;2023-04-06T09:01:03;8.70;99.90
24638;DHT22;12773;50.162;8.548;2023-04-06T09:03:52;8.60;99.90
24638;DHT22;12773;50.162;8.548;2023-04-06T09:06:41;8.50;99.90
24638;DHT22;12773;50.162;8.548;2023-04-06T09:09:28;8.80;99.90
24638;DHT22;12773;50.162;8.548;2023-04-06T09:12:27;9.10;99.90
24638;DHT22;12773;50.162;8.548;2023-04-06T09:15:19;9.20;99.90
24638;DHT22;12773;50.162;8.548;2023-04-06T09:18:08;9.60;99.90
24638;DHT22;12773;50.162;8.548;2023-04-06T09:21:04;9.70;99.90
24638;DHT22;12773;50.162;8.548;2023-04-06T09:24:01;9.80;99.90
24638;DHT22;12773;50.162;8.548;2023-04-06T09:26:48;10.00;99.90
24638;DHT22;12773;50.162;8.548;2023-04-06T09:29:35;10.20;99.90
24638;DHT22;12773;50.162;8.548;2023-04-06T09:32:23;10.40;99.90
24638;DHT22;12773;50.162;8.548;2023-04-06T09:35:10;10.50;99.90
24638;DHT22;12773;50.162;8.548;2023-04-06T09:37:58;10.60;99.90
24638;DHT22;12773;50.162;8.548;2023-04-06T09:40:50;10.80;99.90
24638;DHT22;12773;50.162;8.548;2023-04-06T09:43:39;11.00;99.90
24638;DHT22;12773;50.162;8.548;2023-04-06T09:46:28;11.30;99.90
24638;DHT22;12773;50.162;8.548;2023-04-06T09:49:18;11.50;99.00
24638;DHT22;12773;50.162;8.548;2023-04-06T09:52:07;11.50;97.60
24638;DHT22;12773;50.162;8.548;2023-04-06T09:54:56;11.90;99.50
24638;DHT22;12773;50.162;8.548;2023-04-06T09:57:50;12.40;98.30
24638;DHT22;12773;50.162;8.548;2023-04-06T10:00:44;12.60;96.50
24638;DHT22;12773;50.162;8.548;2023-04-06T10:06:32;13.00;95.30
24638;DHT22;12773;50.162;8.548;2023-04-06T10:09:24;12.50;92.70
24638;DHT22;12773;50.162;8.548;2023-04-06T10:12:13;12.20;93.00
24638;DHT22;12773;50.162;8.548;2023-04-06T10:15:00;12.50;93.50
24638;DHT22;12773;50.162;8.548;2023-04-06T10:17:47;12.90;94.10
24638;DHT22;12773;50.162;8.548;2023-04-06T10:20:56;13.30;94.40
24638;DHT22;12773;50.162;8.548;2023-04-06T10:23:56;13.30;92.10
24638;DHT22;12773;50.162;8.548;2023-04-06T10:26:46;13.60;90.70
24638;DHT22;12773;50.162;8.548;2023-04-06T10:29:48;14.00;90.90
24638;DHT22;12773;50.162;8.548;2023-04-06T10:32:39;14.00;89.60
24638;DHT22;12773;50.162;8.548;2023-04-06T10:35:46;14.20;88.30
24638;DHT22;12773;50.162;8.548;2023-04-06T10:38:19;14.60;88.80
24638;DHT22;12773;50.162;8.548;2023-04-06T10:41:12;14.60;85.80
24638;DHT22;12773;50.162;8.548;2023-04-06T10:44:00;14.60;82.90
24638;DHT22;12773;50.162;8.548;2023-04-06T10:47:00;14.80;79.70
24638;DHT22;12773;50.162;8.548;2023-04-06T10:49:50;14.40;80.10
24638;DHT22;12773;50.162;8.548;2023-04-06T10:52:37;14.10;78.70
24638;DHT22;12773;50.162;8.548;2023-04-06T10:55:28;14.00;79.80
24638;DHT22;12773;50.162;8.548;2023-04-06T10:58:17;14.30;79.70
24638;DHT22;12773;50.162;8.548;2023-04-06T11:01:04;14.40;80.50
24638;DHT22;12773;50.162;8.548;2023-04-06T11:03:56;14.50;79.00
24638;DHT22;12773;50.162;8.548;2023-04-06T11:06:48;14.70;79.60
24638;DHT22;12773;50.162;8.548;2023-04-06T11:09:42;14.90;79.40
24638;DHT22;12773;50.162;8.548;2023-04-06T11:12:27;15.10;78.20
24638;DHT22;12773;50.162;8.548;2023-04-06T11:15:16;15.30;74.00
24638;DHT22;12773;50.162;8.548;2023-04-06T11:18:04;15.10;75.70
24638;DHT22;12773;50.162;8.548;2023-04-06T11:20:52;15.10;76.80
24638;DHT22;12773;50.162;8.548;2023-04-06T11:23:39;14.80;77.00
24638;DHT22;12773;50.162;8.548;2023-04-06T11:26:26;14.70;78.20
24638;DHT22;12773;50.162;8.548;2023-04-06T11:29:16;14.80;81.30
24638;DHT22;12773;50.162;8.548;2023-04-06T11:32:05;15.00;77.40
24638;DHT22;12773;50.162;8.548;2023-04-06T11:34:53;15.10;76.60
24638;DHT22;12773;50.162;8.548;2023-04-06T11:37:42;15.20;77.30
24638;DHT22;12773;50.162;8.548;2023-04-06T11:40:30;15.00;74.50
24638;DHT22;12773;50.162;8.548;2023-04-06T11:43:30;15.10;74.00
24638;DHT22;12773;50.162;8.548;2023-04-06T11:46:20;15.10;72.60
24638;DHT22;12773;50.162;8.548;2023-04-06T11:49:07;15.10;74.00
24638;DHT22;12773;50.162;8.548;2023-04-06T11:51:55;15.60;78.60
24638;DHT22;12773;50.162;8.548;2023-04-06T11:54:43;15.90;73.40
24638;DHT22;12773;50.162;8.548;2023-04-06T11:57:31;15.90;71.10
24638;DHT22;12773;50.162;8.548;2023-04-06T12:00:20;15.30;69.10
24638;DHT22;12773;50.162;8.548;2023-04-06T12:03:11;15.30;71.60
24638;DHT22;12773;50.162;8.548;2023-04-06T12:05:59;15.60;70.40
24638;DHT22;12773;50.162;8.548;2023-04-06T12:08:47;15.40;71.60
24638;DHT22;12773;50.162;8.548;2023-04-06T12:11:34;15.60;70.90
24638;DHT22;12773;50.162;8.548;2023-04-06T12:14:22;15.60;70.80
24638;DHT22;12773;50.162;8.548;2023-04-06T12:17:10;15.90;70.40
24638;DHT22;12773;50.162;8.548;2023-04-06T12:19:57;16.00;68.60
24638;DHT22;12773;50.162;8.548;2023-04-06T12:22:46;16.10;70.20
24638;DHT22;12773;50.162;8.548;2023-04-06T12:25:34;15.90;66.80
24638;DHT22;12773;50.162;8.548;2023-04-06T12:28:22;15.80;69.50
24638;DHT22;12773;50.162;8.548;2023-04-06T12:31:19;16.10;68.60
24638;DHT22;12773;50.162;8.548;2023-04-06T12:34:07;16.20;67.10
24638;DHT22;12773;50.162;8.548;2023-04-06T12:36:54;16.30;67.70
24638;DHT22;12773;50.162;8.548;2023-04-06T12:39:42;16.10;66.80
24638;DHT22;12773;50.162;8.548;2023-04-06T12:42:30;15.90;65.60
24638;DHT22;12773;50.162;8.548;2023-04-06T12:45:17;16.10;65.60
24638;DHT22;12773;50.162;8.548;2023-04-06T12:48:05;16.50;63.90
24638;DHT22;12773;50.162;8.548;2023-04-06T12:51:00;16.30;63.70
24638;DHT22;12773;50.162;8.548;2023-04-06T12:53:48;16.00;65.20
24638;DHT22;12773;50.162;8.548;2023-04-06T12:56:36;15.90;66.80
24638;DHT22;12773;50.162;8.548;2023-04-06T12:59:25;15.90;64.20
24638;DHT22;12773;50.162;8.548;2023-04-06T13:02:13;15.90;64.50
24638;DHT22;12773;50.162;8.548;2023-04-06T13:05:01;15.90;65.40
24638;DHT22;12773;50.162;8.548;2023-04-06T13:07:48;16.30;66.90
24638;DHT22;12773;50.162;8.548;2023-04-06T13:10:35;16.50;63.00
24638;DHT22;12773;50.162;8.548;2023-04-06T13:13:27;15.90;61.80
24638;DHT22;12773;50.162;8.548;2023-04-06T13:16:15;15.70;62.70
24638;DHT22;12773;50.162;8.548;2023-04-06T13:19:02;15.60;62.10
24638;DHT22;12773;50.162;8.548;2023-04-06T13:21:50;15.90;63.00
24638;DHT22;12773;50.162;8.548;2023-04-06T13:24:39;16.20;62.70
24638;DHT22;12773;50.162;8.548;2023-04-06T13:27:26;16.50;62.60
24638;DHT22;12773;50.162;8.548;2023-04-06T13:30:14;16.60;62.10
24638;DHT22;12773;50.162;8.548;2023-04-06T13:33:03;16.80;63.40
24638;DHT22;12773;50.162;8.548;2023-04-06T13:35:52;16.70;61.00
24638;DHT22;12773;50.162;8.548;2023-04-06T13:38:40;16.70;62.20
24638;DHT22;12773;50.162;8.548;2023-04-06T13:41:28;16.50;64.20
24638;DHT22;12773;50.162;8.548;2023-04-06T13:44:15;16.50;61.70
24638;DHT22;12773;50.162;8.548;2023-04-06T13:47:02;16.40;60.60
24638;DHT22;12773;50.162;8.548;2023-04-06T13:49:53;16.50;60.10
24638;DHT22;12773;50.162;8.548;2023-04-06T13:52:41;16.80;65.50
24638;DHT22;12773;50.162;8.548;2023-04-06T13:55:28;16.90;63.20
24638;DHT22;12773;50.162;8.548;2023-04-06T13:58:17;16.80;59.40
24638;DHT22;12773;50.162;8.548;2023-04-06T14:01:06;16.70;59.20
24638;DHT22;12773;50.162;8.548;2023-04-06T14:03:57;16.70;60.30
24638;DHT22;12773;50.162;8.548;2023-04-06T14:06:45;16.50;59.10
24638;DHT22;12773;50.162;8.548;2023-04-06T14:09:33;16.20;58.60
24638;DHT22;12773;50.162;8.548;2023-04-06T14:12:20;16.10;59.50
24638;DHT22;12773;50.162;8.548;2023-04-06T14:15:10;15.90;59.10
24638;DHT22;12773;50.162;8.548;2023-04-06T14:17:58;15.90;61.10
24638;DHT22;12773;50.162;8.548;2023-04-06T14:20:52;16.00;59.60
24638;DHT22;12773;50.162;8.548;2023-04-06T14:23:35;15.90;60.70
24638;DHT22;12773;50.162;8.548;2023-04-06T14:26:26;16.00;60.30
24638;DHT22;12773;50.162;8.548;2023-04-06T14:29:13;15.90;60.80
24638;DHT22;12773;50.162;8.548;2023-04-06T14:32:02;15.80;60.30
24638;DHT22;12773;50.162;8.548;2023-04-06T14:34:49;15.80;60.30
24638;DHT22;12773;50.162;8.548;2023-04-06T14:37:37;15.60;59.10
24638;DHT22;12773;50.162;8.548;2023-04-06T14:40:24;15.80;58.80
24638;DHT22;12773;50.162;8.548;2023-04-06T14:43:12;16.00;59.30
24638;DHT22;12773;50.162;8.548;2023-04-06T14:46:02;15.70;57.70
24638;DHT22;12773;50.162;8.548;2023-04-06T14:48:52;15.30;58.40
24638;DHT22;12773;50.162;8.548;2023-04-06T14:51:39;15.10;59.50
24638;DHT22;12773;50.162;8.548;2023-04-06T14:54:26;15.00;58.90
24638;DHT22;12773;50.162;8.548;2023-04-06T14:57:14;15.20;59.30
24638;DHT22;12773;50.162;8.548;2023-04-06T15:00:01;15.30;59.60
24638;DHT22;12773;50.162;8.548;2023-04-06T15:02:49;15.30;60.70
24638;DHT22;12773;50.162;8.548;2023-04-06T15:05:37;15.30;60.30
24638;DHT22;12773;50.162;8.548;2023-04-06T15:08:25;15.20;61.00
24638;DHT22;12773;50.162;8.548;2023-04-06T15:11:12;15.10;61.90
24638;DHT22;12773;50.162;8.548;2023-04-06T15:14:00;14.80;60.00
24638;DHT22;12773;50.162;8.548;2023-04-06T15:16:48;14.80;60.70
24638;DHT22;12773;50.162;8.548;2023-04-06T15:19:36;14.80;60.20
24638;DHT22;12773;50.162;8.548;2023-04-06T15:22:25;14.90;59.90
24638;DHT22;12773;50.162;8.548;2023-04-06T15:25:12;14.90;61.80
24638;DHT22;12773;50.162;8.548;2023-04-06T15:27:59;14.70;59.60
24638;DHT22;12773;50.162;8.548;2023-04-06T15:30:47;14.60;59.70
24638;DHT22;12773;50.162;8.548;2023-04-06T15:33:34;14.80;59.30
24638;DHT22;12773;50.162;8.548;2023-04-06T15:36:26;14.60;58.80
24638;DHT22;12773;50.162;8.548;2023-04-06T15:39:17;14.70;59.20
24638;DHT22;12773;50.162;8.548;2023-04-06T15:42:05;14.70;59.90
24638;DHT22;12773;50.162;8.548;2023-04-06T15:44:52;14.50;57.90
24638;DHT22;12773;50.162;8.548;2023-04-06T15:47:42;14.40;58.00
24638;DHT22;12773;50.162;8.548;2023-04-06T15:50:31;14.30;56.60
24638;DHT22;12773;50.162;8.548;2023-04-06T15:53:19;14.20;57.70
24638;DHT22;12773;50.162;8.548;2023-04-06T15:56:07;14.20;59.10
24638;DHT22;12773;50.162;8.548;2023-04-06T15:58:54;14.10;58.40
24638;DHT22;12773;50.162;8.548;2023-04-06T16:01:42;14.00;58.00
24638;DHT22;12773;50.162;8.548;2023-04-06T16:04:30;14.10;57.90
24638;DHT22;12773;50.162;8.548;2023-04-06T16:07:18;14.30;58.80
24638;DHT22;12773;50.162;8.548;2023-04-06T16:10:06;14.40;59.20
24638;DHT22;12773;50.162;8.548;2023-04-06T16:12:53;14.30;59.10
24638;DHT22;12773;50.162;8.548;2023-04-06T16:15:41;14.40;60.00
24638;DHT22;12773;50.162;8.548;2023-04-06T16:18:29;14.20;58.50
24638;DHT22;12773;50.162;8.548;2023-04-06T16:21:18;14.10;59.50
24638;DHT22;12773;50.162;8.548;2023-04-06T16:24:05;14.10;60.10
24638;DHT22;12773;50.162;8.548;2023-04-06T16:26:53;14.00;60.90
24638;DHT22;12773;50.162;8.548;2023-04-06T16:29:43;13.80;60.90
24638;DHT22;12773;50.162;8.548;2023-04-06T16:32:30;13.80;61.30
24638;DHT22;12773;50.162;8.548;2023-04-06T16:35:18;13.70;62.20
24638;DHT22;12773;50.162;8.548;2023-04-06T16:38:05;13.60;60.60
24638;DHT22;12773;50.162;8.548;2023-04-06T16:41:00;13.70;60.40
24638;DHT22;12773;50.162;8.548;2023-04-06T16:43:47;13.70;62.30
24638;DHT22;12773;50.162;8.548;2023-04-06T16:46:35;13.70;62.70
24638;DHT22;12773;50.162;8.548;2023-04-06T16:49:24;13.60;62.30
24638;DHT22;12773;50.162;8.548;2023-04-06T16:52:12;13.60;63.70
24638;DHT22;12773;50.162;8.548;2023-04-06T16:55:00;13.60;65.00
24638;DHT22;12773;50.162;8.548;2023-04-06T16:57:48;13.40;65.50
24638;DHT22;12773;50.162;8.548;2023-04-06T17:00:37;13.40;66.90
24638;DHT22;12773;50.162;8.548;2023-04-06T17:03:31;13.20;66.40
24638;DHT22;12773;50.162;8.548;2023-04-06T17:06:16;13.20;67.00
24638;DHT22;12773;50.162;8.548;2023-04-06T17:09:03;13.10;66.90
24638;DHT22;12773;50.162;8.548;2023-04-06T17:11:50;13.00;67.40
24638;DHT22;12773;50.162;8.548;2023-04-06T17:14:38;12.90;68.80
24638;DHT22;12773;50.162;8.548;2023-04-06T17:17:26;12.80;68.90
24638;DHT22;12773;50.162;8.548;2023-04-06T17:20:14;12.80;69.20
24638;DHT22;12773;50.162;8.548;2023-04-06T17:23:02;13.00;70.50
24638;DHT22;12773;50.162;8.548;2023-04-06T17:25:50;13.00;69.70
24638;DHT22;12773;50.162;8.548;2023-04-06T17:28:39;13.00;70.50
24638;DHT22;12773;50.162;8.548;2023-04-06T17:31:26;13.00;70.40
24638;DHT22;12773;50.162;8.548;2023-04-06T17:34:14;13.00;71.40
24638;DHT22;12773;50.162;8.548;2023-04-06T17:37:01;12.90;71.60
24638;DHT22;12773;50.162;8.548;2023-04-06T17:39:49;12.70;72.40
24638;DHT22;12773;50.162;8.548;2023-04-06T17:42:36;12.60;71.80
24638;DHT22;12773;50.162;8.548;2023-04-06T17:45:23;12.50;72.60
24638;DHT22;12773;50.162;8.548;2023-04-06T17:48:11;12.40;73.40
24638;DHT22;12773;50.162;8.548;2023-04-06T17:50:59;12.30;75.50
24638;DHT22;12773;50.162;8.548;2023-04-06T17:53:47;12.20;76.60
24638;DHT22;12773;50.162;8.548;2023-04-06T17:56:34;12.20;78.50